Time;durP1;ratioP1;P1;durP2;ratioP2;P2;SDS_P1;SDS_P2;PMS_P1;PMS_P2;Temp;Humidity;BMP_temperature;BMP_pressure;BME280_temperature;BME280_humidity;BME280_pressure;Samples;Min_cycle;Max_cycle;Signal;HPM_P1;HPM_P2
2023/10/17 06:19:09;;;;;;;24.70;15.50;;;;;;;7.29;100.00;101910.44;5025569;28;20045;-65
2023/10/17 06:21:39;;;;;;;25.63;16.00;;;;;;;7.29;100.00;101911.28;5020511;28;20101;-65
2023/10/17 06:24:45;;;;;;;23.08;15.13;;;;;;;7.30;100.00;101912.94;5014159;28;20619;-65
2023/10/17 06:26:59;;;;;;;26.98;16.00;;;;;;;7.29;100.00;101919.19;5018085;28;20049;-65
2023/10/17 06:34:38;;;;;;;21.38;14.57;;;;;;;7.31;100.00;101941.06;5019323;28;20041;-65
2023/10/17 06:37:07;;;;;;;22.08;14.30;;;;;;;7.30;100.00;101931.44;5011110;28;20032;-65
2023/10/17 06:39:45;;;;;;;19.52;14.00;;;;;;;7.28;100.00;101925.44;5019383;28;20029;-64
2023/10/17 06:42:29;;;;;;;20.55;14.48;;;;;;;7.32;100.00;101928.69;5015009;28;20033;-65
2023/10/17 06:44:54;;;;;;;22.02;15.10;;;;;;;7.31;100.00;101927.84;5020146;28;20025;-65
2023/10/17 06:47:30;;;;;;;24.70;14.38;;;;;;;7.30;100.00;101923.53;5018411;28;21050;-65
2023/10/17 06:52:39;;;;;;;21.45;14.05;;;;;;;7.30;100.00;101927.97;5025000;28;20064;-65
2023/10/17 06:55:07;;;;;;;19.73;13.80;;;;;;;7.31;100.00;101932.28;5017885;28;20029;-65
2023/10/17 06:57:36;;;;;;;24.02;14.00;;;;;;;7.30;100.00;101927.97;5019545;28;20034;-65
2023/10/17 07:00:24;;;;;;;23.90;13.80;;;;;;;7.31;100.00;101934.94;5019395;28;20033;-65
2023/10/17 07:02:49;;;;;;;20.75;13.93;;;;;;;7.28;100.00;101932.53;5020484;28;20295;-65
2023/10/17 07:05:21;;;;;;;19.90;14.23;;;;;;;7.27;100.00;101925.56;5013750;28;20026;-65
2023/10/17 07:07:59;;;;;;;24.80;14.75;;;;;;;7.30;100.00;101938.53;5018708;28;20029;-65
2023/10/17 07:13:35;;;;;;;21.33;14.48;;;;;;;7.36;100.00;101938.03;5021461;28;20037;-65
2023/10/17 07:16:04;;;;;;;23.85;15.05;;;;;;;7.34;100.00;101930.22;5018802;28;20458;-65
2023/10/17 07:18:44;;;;;;;23.83;14.60;;;;;;;7.33;100.00;101930.34;5020930;28;20029;-65
2023/10/17 07:23:42;;;;;;;21.40;15.03;;;;;;;7.37;100.00;101935.28;5027799;28;20493;-65
2023/10/17 07:26:17;;;;;;;22.35;15.73;;;;;;;7.39;100.00;101938.63;5018093;28;20061;-65
2023/10/17 07:28:45;;;;;;;25.70;16.27;;;;;;;7.39;100.00;101941.28;5024298;28;20056;-65
2023/10/17 07:31:13;;;;;;;24.40;15.37;;;;;;;7.39;100.00;101932.50;5022332;28;20021;-65
2023/10/17 07:33:43;;;;;;;26.25;16.10;;;;;;;7.39;100.00;101936.00;5017225;28;20524;-65
2023/10/17 07:36:14;;;;;;;24.45;15.65;;;;;;;7.40;100.00;101929.75;5019489;28;20028;-65
2023/10/17 07:38:43;;;;;;;24.67;16.08;;;;;;;7.41;100.00;101936.69;5026892;28;20123;-65
2023/10/17 07:41:14;;;;;;;24.98;15.30;;;;;;;7.40;100.00;101942.13;5024665;28;20030;-65
2023/10/17 07:43:46;;;;;;;27.02;16.60;;;;;;;7.40;100.00;101944.75;5018161;28;20035;-65
2023/10/17 07:46:17;;;;;;;39.38;19.55;;;;;;;7.39;100.00;101940.44;5027874;28;20056;-65
2023/10/17 07:48:48;;;;;;;25.65;16.52;;;;;;;7.38;100.00;101941.41;5017010;28;20176;-65
2023/10/17 07:51:17;;;;;;;26.65;17.20;;;;;;;7.35;100.00;101941.66;5023870;28;20033;-65
2023/10/17 07:53:47;;;;;;;33.63;18.42;;;;;;;7.35;100.00;101942.50;5016690;28;20508;-65
2023/10/17 07:56:20;;;;;;;;;;;;;;;7.42;100.00;101932.25;5027350;28;20486;-64
2023/10/17 07:59:04;;;;;;;29.17;18.35;;;;;;;7.40;100.00;101935.03;5017378;28;19913;-65
2023/10/17 08:01:43;;;;;;;30.30;18.98;;;;;;;7.46;100.00;101936.31;5017934;28;20506;-65
2023/10/17 08:06:41;;;;;;;26.00;17.85;;;;;;;7.61;100.00;101921.88;5016451;28;20029;-65
2023/10/17 08:09:36;;;;;;;27.50;19.13;;;;;;;7.67;100.00;101925.81;5036895;28;20025;-65
2023/10/17 08:11:53;;;;;;;26.52;17.30;;;;;;;7.75;100.00;101918.09;5036829;28;20112;-65
2023/10/17 08:14:22;;;;;;;23.88;17.77;;;;;;;7.81;100.00;101914.13;5014776;28;20021;-65
2023/10/17 08:16:49;;;;;;;25.55;17.95;;;;;;;7.89;100.00;101919.63;5023871;28;20025;-65
2023/10/17 08:19:29;;;;;;;29.33;19.73;;;;;;;7.98;100.00;101924.16;5017628;28;20104;-65
2023/10/17 08:24:34;;;;;;;22.38;16.60;;;;;;;8.06;100.00;101922.53;5031276;28;20041;-65
2023/10/17 08:29:49;;;;;;;25.17;16.63;;;;;;;8.18;100.00;101918.03;5011459;28;20168;-65
2023/10/17 08:34:58;;;;;;;21.63;16.13;;;;;;;8.31;100.00;101915.19;5014795;28;20030;-65
2023/10/17 08:37:28;;;;;;;22.30;15.05;;;;;;;8.37;99.92;101910.25;5014661;28;20033;-65
2023/10/17 08:39:53;;;;;;;22.40;14.90;;;;;;;8.44;99.31;101920.34;5029083;28;20029;-65
2023/10/17 08:42:30;;;;;;;22.02;15.57;;;;;;;8.48;99.25;101911.16;5015572;28;20029;-65
2023/10/17 08:44:57;;;;;;;18.90;13.68;;;;;;;8.50;98.39;101918.00;5024855;28;20029;-65
2023/10/17 08:47:25;;;;;;;22.35;14.93;;;;;;;8.60;98.01;101918.03;5022524;28;20022;-65
2023/10/17 08:49:54;;;;;;;19.05;14.05;;;;;;;8.62;97.60;101913.47;5021046;28;20025;-65
2023/10/17 08:52:27;;;;;;;22.05;14.05;;;;;;;8.66;96.49;101920.16;5026127;28;20030;-65
2023/10/17 08:54:53;;;;;;;22.63;13.48;;;;;;;8.70;95.98;101913.66;5014246;28;20028;-65
2023/10/17 08:57:19;;;;;;;18.45;14.18;;;;;;;8.74;95.71;101908.94;5011760;28;20041;-65
2023/10/17 09:05:00;;;;;;;18.05;12.85;;;;;;;8.88;94.30;101912.06;5016782;28;20578;-65
2023/10/17 09:07:32;;;;;;;19.42;12.70;;;;;;;8.96;93.94;101917.53;5014138;28;20546;-65
2023/10/17 09:10:04;;;;;;;25.42;13.15;;;;;;;9.04;93.89;101921.31;5023680;28;20040;-65
2023/10/17 09:12:42;;;;;;;16.75;12.85;;;;;;;9.11;93.26;101914.50;5020741;28;20431;-65
2023/10/17 09:15:27;;;;;;;19.20;11.93;;;;;;;9.17;92.34;101922.75;5012481;28;20037;-65
2023/10/17 09:18:07;;;;;;;16.42;11.38;;;;;;;9.22;91.11;101917.03;5013960;28;20038;-64
2023/10/17 09:20:37;;;;;;;19.77;11.38;;;;;;;9.18;90.95;101913.00;5014793;28;20033;-65
2023/10/17 09:23:04;;;;;;;16.50;10.70;;;;;;;9.31;90.61;101921.56;5008241;28;20030;-66
2023/10/17 09:25:30;;;;;;;12.82;10.18;;;;;;;9.36;90.13;101919.31;5015687;28;20431;-64
2023/10/17 09:27:56;;;;;;;15.10;10.60;;;;;;;9.42;89.36;101917.94;5027359;28;20033;-65
2023/10/17 09:30:26;;;;;;;17.08;10.20;;;;;;;9.46;89.29;101922.00;5016071;28;20626;-65
2023/10/17 09:32:52;;;;;;;12.50;9.05;;;;;;;9.47;88.71;101915.72;5018091;28;20034;-65
2023/10/17 09:35:18;;;;;;;18.88;9.60;;;;;;;9.47;87.67;101916.56;5016385;28;20394;-65
2023/10/17 09:37:50;;;;;;;18.23;9.80;;;;;;;9.56;87.38;101921.06;5011697;28;20121;-65
2023/10/17 09:40:31;;;;;;;14.27;10.50;;;;;;;9.65;87.73;101924.69;5021768;28;20535;-65
2023/10/17 09:42:58;;;;;;;13.50;8.82;;;;;;;9.69;87.47;101931.38;5029520;28;20651;-65
2023/10/17 09:45:30;;;;;;;12.40;8.85;;;;;;;9.71;86.28;101933.91;5015079;28;20033;-65
2023/10/17 09:48:01;;;;;;;17.40;10.70;;;;;;;9.81;86.11;101940.03;5009029;28;20113;-66
2023/10/17 09:50:28;;;;;;;14.02;10.20;;;;;;;9.83;86.25;101927.47;5017867;28;20118;-65
2023/10/17 09:52:56;;;;;;;13.30;9.45;;;;;;;9.93;86.29;101936.28;5020690;28;20057;-65
2023/10/17 09:55:24;;;;;;;11.68;8.82;;;;;;;9.98;85.68;101934.06;5021385;28;20549;-66
2023/10/17 09:57:59;;;;;;;15.80;8.35;;;;;;;10.02;84.44;101943.41;5014895;28;20467;-65
2023/10/17 10:00:34;;;;;;;12.02;9.07;;;;;;;10.04;84.18;101937.97;5018575;28;20036;-65
2023/10/17 10:03:00;;;;;;;13.63;9.25;;;;;;;10.11;83.96;101937.25;5018040;28;20664;-64
2023/10/17 10:05:29;;;;;;;12.50;8.70;;;;;;;10.16;83.40;101935.03;5024417;28;20025;-65
2023/10/17 10:08:15;;;;;;;;;;;;;;;10.25;83.50;101936.03;5014018;28;20423;-65
2023/10/17 10:10:46;;;;;;;13.27;8.80;;;;;;;10.25;83.17;101925.41;5015341;28;19928;-65
2023/10/17 10:13:14;;;;;;;14.95;8.85;;;;;;;10.27;82.30;101919.97;5018598;28;20056;-65
2023/10/17 10:15:49;;;;;;;12.48;9.20;;;;;;;10.33;82.15;101912.25;5016147;28;20140;-65
2023/10/17 10:18:16;;;;;;;13.60;8.82;;;;;;;10.37;81.77;101920.75;5017449;28;20083;-65
2023/10/17 10:20:57;;;;;;;12.45;9.05;;;;;;;10.43;81.68;101914.91;5019996;28;20033;-65
2023/10/17 10:23:39;;;;;;;10.52;8.30;;;;;;;10.47;81.28;101914.47;5016746;28;20032;-65
2023/10/17 10:26:19;;;;;;;12.57;7.57;;;;;;;10.49;80.50;101920.47;5008407;28;20061;-65
2023/10/17 10:28:49;;;;;;;15.15;7.82;;;;;;;10.55;80.54;101913.75;5018479;28;20037;-65
2023/10/17 10:31:20;;;;;;;11.18;7.40;;;;;;;10.56;79.27;101904.78;5021513;28;20026;-65
2023/10/17 10:33:48;;;;;;;10.77;7.18;;;;;;;10.60;79.25;101905.34;5026130;28;20039;-65
2023/10/17 10:36:15;;;;;;;9.68;7.35;;;;;;;10.62;79.08;101904.22;5017975;28;20025;-64
2023/10/17 10:38:41;;;;;;;11.77;7.70;;;;;;;10.58;78.07;101889.56;5025810;28;20038;-65
2023/10/17 10:41:07;;;;;;;9.93;6.82;;;;;;;10.65;77.51;101890.63;5019192;28;20028;-65
2023/10/17 10:43:32;;;;;;;10.00;6.93;;;;;;;10.69;77.79;101893.84;5015852;28;20619;-65
2023/10/17 10:45:58;;;;;;;11.20;7.00;;;;;;;10.75;77.25;101887.97;5021103;28;20487;-65
2023/10/17 10:48:23;;;;;;;9.90;6.43;;;;;;;10.78;77.28;101883.19;5025235;28;20059;-65
2023/10/17 10:50:52;;;;;;;7.70;6.75;;;;;;;10.82;76.49;101881.91;5020087;28;20036;-65
2023/10/17 10:53:22;;;;;;;10.82;6.97;;;;;;;10.86;76.84;101872.66;5027953;28;20056;-65
2023/10/17 10:55:55;;;;;;;8.27;7.05;;;;;;;10.91;77.25;101866.06;5020814;28;20431;-65
2023/10/17 10:58:25;;;;;;;9.27;6.97;;;;;;;10.93;76.93;101859.63;5022255;28;20057;-65
2023/10/17 11:00:51;;;;;;;12.07;7.25;;;;;;;10.98;76.56;101856.50;5012769;28;20029;-65
2023/10/17 11:03:19;;;;;;;9.02;6.68;;;;;;;11.04;76.75;101859.44;5012143;28;20076;-65
2023/10/17 11:05:58;;;;;;;9.67;7.37;;;;;;;11.14;76.91;101859.38;5017461;28;20026;-65
2023/10/17 11:08:25;;;;;;;10.18;6.65;;;;;;;11.21;76.56;101864.91;5017949;28;20026;-65
2023/10/17 11:10:50;;;;;;;10.15;6.60;;;;;;;11.23;75.87;101855.78;5017614;28;20041;-65
2023/10/17 11:13:16;;;;;;;10.63;6.57;;;;;;;11.27;75.04;101845.69;5014134;28;20033;-65
2023/10/17 11:15:45;;;;;;;11.15;6.32;;;;;;;11.30;74.30;101851.56;5018280;28;20030;-65
2023/10/17 11:18:11;;;;;;;;;;;;;;;11.43;74.86;101841.38;5021308;28;20559;-65
2023/10/17 11:20:40;;;;;;;10.65;6.28;;;;;;;11.52;75.29;101836.13;5023287;28;20028;-66
2023/10/17 11:23:13;;;;;;;7.88;6.25;;;;;;;11.62;74.85;101828.94;5022453;28;20535;-65
2023/10/17 11:25:44;;;;;;;10.35;6.07;;;;;;;11.70;74.75;101831.66;5019665;28;20079;-65
2023/10/17 11:28:10;;;;;;;11.10;6.40;;;;;;;11.76;74.38;101825.72;5012641;28;20048;-65
2023/10/17 11:30:42;;;;;;;7.03;5.13;;;;;;;11.85;74.07;101811.50;5020367;28;20029;-65
2023/10/17 11:33:29;;;;;;;9.32;5.28;;;;;;;11.96;72.76;101829.91;5015874;28;20498;-65
2023/10/17 11:35:54;;;;;;;8.80;5.50;;;;;;;12.00;71.42;101814.44;5010475;28;20030;-65
2023/10/17 11:38:34;;;;;;;6.50;4.90;;;;;;;12.08;72.06;101815.34;5016014;28;20041;-65
2023/10/17 11:41:04;;;;;;;10.43;5.28;;;;;;;12.14;71.15;101821.84;5015581;28;20446;-65
2023/10/17 11:43:34;;;;;;;7.95;4.90;;;;;;;12.20;70.78;101829.25;5013359;28;20026;-65
2023/10/17 11:46:03;;;;;;;6.97;4.68;;;;;;;12.26;70.79;101828.59;5029754;28;20123;-65
2023/10/17 11:48:40;;;;;;;7.20;4.60;;;;;;;12.26;69.50;101825.09;5017987;28;20029;-65
2023/10/17 11:51:18;;;;;;;8.43;4.40;;;;;;;12.29;69.02;101830.13;5028364;28;20068;-65
2023/10/17 11:54:06;;;;;;;5.75;4.40;;;;;;;12.37;69.13;101819.50;5017202;28;20052;-65
2023/10/17 11:56:33;;;;;;;9.45;4.50;;;;;;;12.37;68.75;101825.66;5017916;28;20022;-65
2023/10/17 11:59:01;;;;;;;5.78;4.00;;;;;;;12.45;68.86;101813.41;5014845;28;20010;-65
2023/10/17 12:01:27;;;;;;;5.40;3.80;;;;;;;12.49;68.62;101812.91;5013319;28;20025;-65
2023/10/17 12:03:57;;;;;;;6.82;3.83;;;;;;;12.53;68.36;101818.75;5021028;28;20371;-65
2023/10/17 12:06:28;;;;;;;7.20;3.95;;;;;;;12.63;67.65;101819.47;5018923;28;20029;-65
2023/10/17 12:08:55;;;;;;;7.20;3.90;;;;;;;12.70;67.61;101820.50;5022179;28;20026;-65
2023/10/17 12:11:21;;;;;;;4.95;3.58;;;;;;;12.75;66.89;101817.38;5020000;28;20033;-66
2023/10/17 12:13:47;;;;;;;6.13;3.45;;;;;;;12.77;66.21;101807.38;5026100;28;20120;-65
2023/10/17 12:16:13;;;;;;;4.05;2.53;;;;;;;12.84;65.21;101805.72;5023250;28;20099;-65
2023/10/17 12:18:38;;;;;;;3.35;2.55;;;;;;;12.84;63.72;101792.41;5030316;28;20090;-66
2023/10/17 12:21:04;;;;;;;4.70;2.67;;;;;;;12.84;63.30;101785.22;5026842;28;20486;-65
2023/10/17 12:23:30;;;;;;;4.80;2.50;;;;;;;12.81;63.18;101771.41;5020930;28;20530;-65
2023/10/17 12:25:58;;;;;;;3.83;2.70;;;;;;;12.77;62.48;101775.38;5024796;28;20133;-65
2023/10/17 12:28:24;;;;;;;4.63;2.75;;;;;;;12.78;62.85;101767.22;5016926;28;20065;-65
2023/10/17 12:30:49;;;;;;;4.40;2.88;;;;;;;12.81;62.75;101766.06;5023551;28;20072;-65
2023/10/17 12:33:14;;;;;;;5.57;3.25;;;;;;;12.92;63.39;101752.41;5024810;28;20025;-65
2023/10/17 12:35:46;;;;;;;5.15;3.08;;;;;;;12.99;63.45;101756.94;5021341;28;20029;-65
2023/10/17 12:38:14;;;;;;;3.97;2.92;;;;;;;13.16;63.15;101749.78;5015956;28;20115;-65
2023/10/17 12:40:42;;;;;;;5.05;3.08;;;;;;;13.28;63.51;101742.31;5028193;28;20566;-65
2023/10/17 12:43:11;;;;;;;3.97;2.80;;;;;;;13.41;63.99;101734.69;5025025;28;20024;-65
2023/10/17 12:45:36;;;;;;;4.07;2.70;;;;;;;13.43;63.17;101716.66;5024221;28;20057;-66
2023/10/17 12:48:02;;;;;;;6.10;2.95;;;;;;;13.50;63.06;101716.81;5020839;28;20060;-65
2023/10/17 12:50:29;;;;;;;5.00;2.72;;;;;;;13.59;62.84;101711.31;5019140;28;20055;-65
2023/10/17 12:52:54;;;;;;;5.20;2.70;;;;;;;13.60;62.09;101696.97;5027390;28;20108;-65
2023/10/17 12:55:20;;;;;;;3.03;2.55;;;;;;;13.60;60.85;101696.16;5020521;28;20045;-66
2023/10/17 12:57:45;;;;;;;4.30;2.65;;;;;;;13.59;60.74;101699.81;5025788;28;20049;-65
2023/10/17 13:00:14;;;;;;;4.85;2.60;;;;;;;13.55;59.97;101703.78;5022483;28;20028;-65
2023/10/17 13:02:40;;;;;;;3.25;2.45;;;;;;;13.60;59.77;101702.31;5024299;28;20640;-66
2023/10/17 13:05:12;;;;;;;3.58;2.50;;;;;;;13.56;58.90;101700.13;5020846;28;20045;-65
2023/10/17 13:07:39;;;;;;;3.65;2.50;;;;;;;13.57;58.80;101712.47;5018900;28;20384;-65
2023/10/17 13:10:07;;;;;;;4.28;2.58;;;;;;;13.64;58.88;101708.13;5018888;28;20112;-65
2023/10/17 13:12:32;;;;;;;7.05;3.50;;;;;;;13.67;58.71;101713.13;5023676;28;20113;-65
2023/10/17 13:14:58;;;;;;;4.90;3.05;;;;;;;13.76;59.57;101705.94;5015814;28;20332;-64
2023/10/17 13:17:24;;;;;;;5.78;3.30;;;;;;;13.76;59.20;101696.09;5021445;28;20053;-66
2023/10/17 13:19:51;;;;;;;4.43;3.30;;;;;;;13.73;59.37;101695.59;5027248;28;20609;-65
2023/10/17 13:22:17;;;;;;;5.93;3.28;;;;;;;13.61;59.07;101682.63;5018925;28;20034;-66
2023/10/17 13:24:45;;;;;;;4.60;3.30;;;;;;;13.76;59.78;101688.09;5014427;28;20151;-65
2023/10/17 13:27:10;;;;;;;8.05;3.15;;;;;;;13.95;60.05;101695.72;5025740;28;20044;-65
2023/10/17 13:29:36;;;;;;;8.15;3.22;;;;;;;14.16;60.48;101688.94;5017268;28;20030;-65
2023/10/17 13:32:07;;;;;;;4.05;2.85;;;;;;;14.27;59.60;101683.25;5018439;28;20039;-65
2023/10/17 13:34:36;;;;;;;4.60;2.88;;;;;;;14.47;59.46;101689.03;5020187;28;20036;-66
2023/10/17 13:37:05;;;;;;;5.53;3.25;;;;;;;14.63;59.55;101686.25;5021563;28;20045;-65
2023/10/17 13:39:33;;;;;;;5.50;3.00;;;;;;;14.78;58.31;101676.47;5020978;28;20734;-65
2023/10/17 13:42:02;;;;;;;6.53;3.40;;;;;;;14.86;57.60;101680.94;5026725;28;20618;-66
2023/10/17 13:44:27;;;;;;;5.28;2.97;;;;;;;14.98;57.75;101682.16;5011386;28;20433;-65
2023/10/17 13:46:53;;;;;;;8.20;2.88;;;;;;;15.25;57.77;101677.28;5024672;28;20026;-65
2023/10/17 13:49:18;;;;;;;6.75;3.50;;;;;;;15.34;57.45;101674.34;5023862;28;20037;-65
2023/10/17 13:51:46;;;;;;;7.38;3.20;;;;;;;15.48;56.24;101660.16;5018883;28;20728;-65
2023/10/17 13:54:13;;;;;;;5.03;3.30;;;;;;;15.45;55.57;101665.88;5021829;28;20032;-65
2023/10/17 13:56:39;;;;;;;5.47;3.30;;;;;;;15.40;55.77;101662.09;5024881;28;20130;-65
2023/10/17 13:59:04;;;;;;;4.10;3.30;;;;;;;15.49;55.80;101669.84;5014828;28;20491;-65
2023/10/17 14:01:32;;;;;;;3.97;2.85;;;;;;;15.70;55.99;101660.31;5018046;28;20033;-65
2023/10/17 14:04:01;;;;;;;5.47;3.20;;;;;;;15.76;54.44;101676.47;5023542;28;20103;-65
2023/10/17 14:06:27;;;;;;;5.25;2.95;;;;;;;15.83;54.00;101659.66;5026986;28;20073;-65
2023/10/17 14:08:55;;;;;;;4.95;3.30;;;;;;;16.01;53.55;101662.78;5023665;28;20107;-65
2023/10/17 14:11:20;;;;;;;4.72;3.08;;;;;;;16.17;53.04;101664.41;5014387;28;20026;-65
2023/10/17 14:13:47;;;;;;;4.28;3.30;;;;;;;16.18;53.10;101663.41;5020400;28;20060;-65
2023/10/17 14:16:12;;;;;;;4.25;3.17;;;;;;;16.15;52.96;101656.56;5020198;28;20024;-65
2023/10/17 14:18:43;;;;;;;5.10;3.15;;;;;;;16.23;52.96;101664.53;5028179;28;20033;-65
2023/10/17 14:21:34;;;;;;;5.15;3.30;;;;;;;16.10;52.60;101658.97;5018643;28;20033;-65
2023/10/17 14:24:07;;;;;;;4.40;3.20;;;;;;;16.19;52.62;101657.88;5019452;28;20133;-65
2023/10/17 14:26:32;;;;;;;6.40;3.60;;;;;;;16.35;52.86;101662.19;5016372;28;20097;-65
2023/10/17 14:29:01;;;;;;;6.85;3.65;;;;;;;16.57;53.01;101655.00;5017102;28;20069;-65
2023/10/17 14:31:29;;;;;;;5.22;3.50;;;;;;;16.66;52.76;101659.25;5020101;28;20041;-65
2023/10/17 14:33:55;;;;;;;5.80;3.70;;;;;;;16.79;52.62;101651.34;5021743;28;20025;-65
2023/10/17 14:36:21;;;;;;;6.45;3.47;;;;;;;16.95;52.33;101650.25;5013508;28;20084;-65
2023/10/17 14:38:52;;;;;;;5.82;3.75;;;;;;;17.06;51.88;101646.22;5015752;28;20124;-65
2023/10/17 14:41:17;;;;;;;5.88;3.80;;;;;;;17.22;51.58;101641.41;5014993;28;20021;-65
2023/10/17 14:43:46;;;;;;;5.30;3.90;;;;;;;17.24;51.30;101642.03;5024048;28;20056;-66
2023/10/17 14:46:11;;;;;;;4.00;3.17;;;;;;;17.36;50.57;101626.25;5025082;28;20107;-65
2023/10/17 14:48:37;;;;;;;4.68;3.67;;;;;;;17.39;50.73;101622.34;5026203;28;20427;-65
2023/10/17 14:51:03;;;;;;;7.68;4.10;;;;;;;17.52;50.68;101625.09;5026935;28;20581;-65
2023/10/17 14:53:28;;;;;;;6.10;3.72;;;;;;;17.64;50.52;101620.84;5019564;28;20041;-65
2023/10/17 14:56:04;;;;;;;5.55;4.30;;;;;;;17.59;49.66;101618.72;5029403;28;20026;-66
2023/10/17 14:58:31;;;;;;;4.30;3.80;;;;;;;17.76;49.80;101607.69;5020799;28;20057;-65
2023/10/17 15:00:56;;;;;;;5.78;3.80;;;;;;;17.67;49.54;101606.19;5028284;28;20037;-65
2023/10/17 15:03:21;;;;;;;7.68;3.70;;;;;;;17.72;50.00;101607.28;5022841;28;20045;-65
2023/10/17 15:05:47;;;;;;;6.43;3.83;;;;;;;17.73;49.74;101603.56;5021084;28;20026;-65
2023/10/17 15:08:13;;;;;;;8.73;3.90;;;;;;;17.72;49.81;101593.84;5019273;28;20108;-65
2023/10/17 15:10:40;;;;;;;8.63;4.53;;;;;;;17.96;49.45;101605.94;5020620;28;20086;-65
2023/10/17 15:13:08;;;;;;;11.68;4.25;;;;;;;18.04;49.49;101600.38;5024572;28;20026;-65
2023/10/17 15:15:34;;;;;;;6.47;4.40;;;;;;;17.69;48.97;101588.88;5017205;28;20131;-65
2023/10/17 15:17:59;;;;;;;5.60;3.83;;;;;;;17.35;49.40;101592.38;5028986;28;20494;-65
2023/10/17 15:20:25;;;;;;;5.32;3.88;;;;;;;17.54;49.96;101580.91;5022741;28;20074;-65
2023/10/17 15:22:51;;;;;;;5.15;3.55;;;;;;;17.44;49.72;101599.22;5023432;28;20113;-65
2023/10/17 15:25:19;;;;;;;4.75;3.60;;;;;;;17.31;49.50;101599.13;5023219;28;20108;-65
2023/10/17 15:27:45;;;;;;;4.18;3.67;;;;;;;17.39;49.89;101601.69;5020783;28;20032;-65
2023/10/17 15:30:14;;;;;;;6.25;3.80;;;;;;;17.33;49.79;101597.06;5027437;28;20032;-65
2023/10/17 15:32:40;;;;;;;;;;;;;;;17.79;49.68;101593.88;5020575;28;20041;-65
2023/10/17 15:35:15;;;;;;;6.18;4.00;;;;;;;17.79;49.53;101593.88;5026366;28;20330;-65
2023/10/17 15:37:47;;;;;;;5.35;3.65;;;;;;;17.98;48.99;101608.44;5021522;28;20040;-65
2023/10/17 15:40:21;;;;;;;6.65;3.83;;;;;;;18.32;48.58;101597.59;5028179;28;20037;-65
2023/10/17 15:42:48;;;;;;;7.28;3.75;;;;;;;18.16;48.38;101609.53;5024612;28;20085;-65
2023/10/17 15:45:15;;;;;;;5.53;4.00;;;;;;;18.11;48.13;101603.09;5024573;28;20502;-65
2023/10/17 15:47:45;;;;;;;4.75;3.70;;;;;;;17.79;48.24;101602.75;5034395;28;20029;-65
2023/10/17 15:50:18;;;;;;;6.18;3.55;;;;;;;17.43;48.88;101604.81;5016875;28;20037;-65
2023/10/17 15:52:52;;;;;;;6.00;3.90;;;;;;;17.08;49.17;101612.00;5030901;28;20025;-65
2023/10/17 15:55:18;;;;;;;4.50;4.03;;;;;;;16.58;49.65;101595.81;5019574;28;20033;-65
2023/10/17 15:57:44;;;;;;;8.25;4.13;;;;;;;15.95;50.22;101594.72;5021966;28;20029;-65
2023/10/17 16:00:15;;;;;;;5.15;3.50;;;;;;;15.30;51.24;101586.56;5037806;28;20029;-65
2023/10/17 16:02:40;;;;;;;5.70;3.85;;;;;;;14.78;52.11;101595.44;5019986;28;20439;-65
2023/10/17 16:05:10;;;;;;;6.68;3.90;;;;;;;14.19;53.26;101595.13;5025442;28;20032;-65
2023/10/17 16:07:36;;;;;;;6.43;4.15;;;;;;;13.81;54.69;101599.47;5020304;28;20491;-64
2023/10/17 16:10:02;;;;;;;5.80;4.22;;;;;;;13.56;55.64;101598.72;5024694;28;20044;-65
2023/10/17 16:12:27;;;;;;;6.63;4.20;;;;;;;13.32;56.28;101612.97;5018971;28;20052;-65
2023/10/17 16:14:53;;;;;;;10.85;5.45;;;;;;;13.08;57.56;101616.47;5023079;28;20030;-64
2023/10/17 16:17:18;;;;;;;7.07;4.57;;;;;;;12.85;58.25;101618.97;5025360;28;20045;-64
2023/10/17 16:19:44;;;;;;;6.05;4.60;;;;;;;12.76;59.14;101616.47;5025144;28;20037;-64
2023/10/17 16:22:09;;;;;;;6.90;4.70;;;;;;;12.57;59.81;101618.44;5032153;28;20033;-64
2023/10/17 16:24:35;;;;;;;5.90;4.72;;;;;;;12.39;60.84;101612.41;5024952;28;20041;-64
2023/10/17 16:27:01;;;;;;;6.50;4.95;;;;;;;12.25;61.59;101608.56;5017535;28;20053;-64
2023/10/17 16:29:26;;;;;;;6.53;4.50;;;;;;;12.18;62.20;101609.38;5028237;28;20025;-64
2023/10/17 16:31:53;;;;;;;6.57;4.78;;;;;;;12.08;62.28;101607.66;5024714;28;20050;-64
2023/10/17 16:34:19;;;;;;;10.98;4.70;;;;;;;11.92;63.25;101607.63;5027633;28;20021;-65
2023/10/17 16:36:45;;;;;;;7.35;5.38;;;;;;;11.78;63.77;101600.22;5026018;28;20030;-64
2023/10/17 16:39:10;;;;;;;6.20;5.00;;;;;;;11.67;64.53;101606.63;5028279;28;20036;-64
2023/10/17 16:41:35;;;;;;;6.47;5.20;;;;;;;11.58;64.90;101604.09;5021348;28;20033;-64
2023/10/17 16:44:02;;;;;;;8.07;5.43;;;;;;;11.43;65.67;101595.88;5015055;28;20029;-65
2023/10/17 16:46:28;;;;;;;8.05;5.65;;;;;;;11.38;66.20;101600.81;5026474;28;20059;-65
2023/10/17 16:48:54;;;;;;;7.43;5.50;;;;;;;11.28;66.54;101600.94;5028930;28;20044;-64
2023/10/17 16:51:23;;;;;;;9.25;5.82;;;;;;;11.21;67.30;101605.19;5024006;28;20029;-65
2023/10/17 16:53:48;;;;;;;10.50;5.80;;;;;;;11.12;67.70;101604.31;5015651;28;20037;-64
2023/10/17 16:56:14;;;;;;;11.10;6.30;;;;;;;11.01;68.15;101601.91;5024341;28;20017;-65
2023/10/17 16:58:40;;;;;;;8.27;5.95;;;;;;;11.00;68.45;101604.72;5023410;28;20040;-64
2023/10/17 17:01:05;;;;;;;9.52;6.28;;;;;;;10.91;68.68;101616.25;5018799;28;20021;-64
2023/10/17 17:03:31;;;;;;;10.00;6.80;;;;;;;10.84;69.26;101605.41;5020083;28;20033;-64
2023/10/17 17:05:56;;;;;;;9.38;6.95;;;;;;;10.80;69.90;101607.56;5023720;28;20022;-64
2023/10/17 17:08:22;;;;;;;11.15;7.03;;;;;;;10.75;70.03;101604.53;5017663;28;20148;-64
2023/10/17 17:10:47;;;;;;;9.55;6.82;;;;;;;10.68;70.56;101600.78;5021279;28;20053;-64
2023/10/17 17:13:12;;;;;;;13.50;6.97;;;;;;;10.60;71.07;101608.69;5021148;28;20056;-64
2023/10/17 17:15:39;;;;;;;10.60;7.30;;;;;;;10.57;71.13;101610.81;5021832;28;20026;-64
2023/10/17 17:18:05;;;;;;;9.93;7.18;;;;;;;10.45;71.40;101619.00;5021221;28;20916;-65
2023/10/17 17:20:31;;;;;;;10.18;7.63;;;;;;;10.44;71.91;101619.16;5017745;28;20428;-64
2023/10/17 17:22:58;;;;;;;11.45;7.95;;;;;;;10.37;71.94;101624.22;5022374;28;20454;-64
2023/10/17 17:25:23;;;;;;;10.73;7.97;;;;;;;10.34;72.55;101621.03;5021937;28;20021;-64
2023/10/17 17:27:51;;;;;;;10.63;7.97;;;;;;;10.31;72.55;101616.03;5018780;28;20024;-65
2023/10/17 17:30:16;;;;;;;10.52;8.05;;;;;;;10.28;73.22;101613.66;5021132;28;20025;-64
2023/10/17 17:32:43;;;;;;;12.10;8.30;;;;;;;10.24;73.64;101605.19;5023438;28;20060;-64
2023/10/17 17:35:08;;;;;;;12.30;8.40;;;;;;;10.20;74.01;101596.69;5020019;28;20028;-65
2023/10/17 17:37:34;;;;;;;13.00;9.10;;;;;;;10.14;74.16;101594.59;5020115;28;20030;-64
2023/10/17 17:40:00;;;;;;;11.23;8.30;;;;;;;10.12;74.31;101596.56;5025500;28;20037;-64
2023/10/17 17:42:26;;;;;;;12.80;8.48;;;;;;;10.08;74.95;101589.84;5017385;28;20690;-64
2023/10/17 17:44:52;;;;;;;13.55;8.60;;;;;;;10.04;75.25;101585.84;5027585;28;20033;-64
2023/10/17 17:47:19;;;;;;;9.90;8.35;;;;;;;10.00;75.12;101589.78;5020544;28;20028;-64
2023/10/17 17:49:45;;;;;;;9.52;7.95;;;;;;;9.93;75.54;101583.41;5018853;28;20116;-64
2023/10/17 17:52:11;;;;;;;11.25;8.20;;;;;;;9.92;75.80;101593.19;5020512;28;20132;-64
2023/10/17 17:54:36;;;;;;;11.25;8.40;;;;;;;9.90;75.75;101595.16;5019711;28;20030;-64
2023/10/17 17:57:02;;;;;;;13.13;8.57;;;;;;;9.88;76.25;101593.63;5024827;28;20044;-64
2023/10/17 17:59:27;;;;;;;11.77;8.65;;;;;;;9.82;76.62;101591.53;5029487;28;20140;-64
2023/10/17 18:01:53;;;;;;;12.13;8.45;;;;;;;9.81;76.49;101595.19;5018720;28;20080;-64
2023/10/17 18:04:18;;;;;;;13.43;8.27;;;;;;;9.78;76.71;101601.59;5016404;28;20509;-64
2023/10/17 18:06:44;;;;;;;9.80;8.13;;;;;;;9.75;76.75;101596.59;5013844;28;20079;-64
2023/10/17 18:09:10;;;;;;;12.40;8.70;;;;;;;9.71;77.11;101591.75;5029149;28;20029;-64
2023/10/17 18:11:39;;;;;;;11.30;7.82;;;;;;;9.68;77.12;101592.03;5013594;28;20033;-63
2023/10/17 18:14:05;;;;;;;10.63;7.67;;;;;;;9.65;77.38;101593.16;5029453;28;20021;-64
2023/10/17 18:16:33;;;;;;;10.70;7.78;;;;;;;9.60;77.12;101592.78;5015975;28;20050;-64